sensor_id;sensor_type;location;lat;lon;timestamp;temperature;humidity
29031;DHT22;16122;50.236;11.734;2024-01-16T00:01:47;16.20;61.60
29031;DHT22;16122;50.236;11.734;2024-01-16T00:04:13;16.30;62.10
29031;DHT22;16122;50.236;11.734;2024-01-16T00:06:39;16.30;62.00
29031;DHT22;16122;50.236;11.734;2024-01-16T00:09:06;16.40;62.10
29031;DHT22;16122;50.236;11.734;2024-01-16T00:11:32;16.40;62.10
29031;DHT22;16122;50.236;11.734;2024-01-16T00:13:58;16.40;62.20
29031;DHT22;16122;50.236;11.734;2024-01-16T00:16:23;16.40;62.00
29031;DHT22;16122;50.236;11.734;2024-01-16T00:18:49;16.40;62.00
29031;DHT22;16122;50.236;11.734;2024-01-16T00:21:15;16.40;61.90
29031;DHT22;16122;50.236;11.734;2024-01-16T00:23:41;16.50;62.00
29031;DHT22;16122;50.236;11.734;2024-01-16T00:26:06;16.50;62.00
29031;DHT22;16122;50.236;11.734;2024-01-16T00:28:32;16.50;62.00
29031;DHT22;16122;50.236;11.734;2024-01-16T00:30:58;16.50;62.00
29031;DHT22;16122;50.236;11.734;2024-01-16T00:33:24;16.50;61.90
29031;DHT22;16122;50.236;11.734;2024-01-16T00:35:50;16.50;61.90
29031;DHT22;16122;50.236;11.734;2024-01-16T00:38:16;16.50;61.90
29031;DHT22;16122;50.236;11.734;2024-01-16T00:40:42;16.50;61.80
29031;DHT22;16122;50.236;11.734;2024-01-16T00:43:08;16.60;62.00
29031;DHT22;16122;50.236;11.734;2024-01-16T00:45:34;16.50;61.80
29031;DHT22;16122;50.236;11.734;2024-01-16T00:48:00;16.50;61.80
29031;DHT22;16122;50.236;11.734;2024-01-16T00:50:25;16.50;61.70
29031;DHT22;16122;50.236;11.734;2024-01-16T00:52:52;16.50;61.90
29031;DHT22;16122;50.236;11.734;2024-01-16T00:55:18;16.60;61.90
29031;DHT22;16122;50.236;11.734;2024-01-16T00:57:43;16.60;61.90
29031;DHT22;16122;50.236;11.734;2024-01-16T01:00:09;16.60;61.90
29031;DHT22;16122;50.236;11.734;2024-01-16T01:02:37;16.50;61.80
29031;DHT22;16122;50.236;11.734;2024-01-16T01:05:03;16.50;61.80
29031;DHT22;16122;50.236;11.734;2024-01-16T01:07:29;16.50;61.90
29031;DHT22;16122;50.236;11.734;2024-01-16T01:09:54;16.50;61.70
29031;DHT22;16122;50.236;11.734;2024-01-16T01:12:20;16.50;61.40
29031;DHT22;16122;50.236;11.734;2024-01-16T01:14:46;16.40;61.60
29031;DHT22;16122;50.236;11.734;2024-01-16T01:17:12;16.50;61.20
29031;DHT22;16122;50.236;11.734;2024-01-16T01:19:38;16.40;61.00
29031;DHT22;16122;50.236;11.734;2024-01-16T01:22:04;16.40;61.10
29031;DHT22;16122;50.236;11.734;2024-01-16T01:24:30;16.30;60.70
29031;DHT22;16122;50.236;11.734;2024-01-16T01:26:55;16.30;60.40
29031;DHT22;16122;50.236;11.734;2024-01-16T01:29:21;16.30;60.20
29031;DHT22;16122;50.236;11.734;2024-01-16T01:31:47;16.30;60.20
29031;DHT22;16122;50.236;11.734;2024-01-16T01:34:13;16.30;60.40
29031;DHT22;16122;50.236;11.734;2024-01-16T01:36:39;16.20;60.40
29031;DHT22;16122;50.236;11.734;2024-01-16T01:39:05;16.20;60.70
29031;DHT22;16122;50.236;11.734;2024-01-16T01:41:31;16.20;60.40
29031;DHT22;16122;50.236;11.734;2024-01-16T01:43:57;16.20;60.40
29031;DHT22;16122;50.236;11.734;2024-01-16T01:46:22;16.20;60.30
29031;DHT22;16122;50.236;11.734;2024-01-16T01:48:49;16.20;59.90
29031;DHT22;16122;50.236;11.734;2024-01-16T01:51:18;16.20;59.70
29031;DHT22;16122;50.236;11.734;2024-01-16T01:53:45;16.20;59.60
29031;DHT22;16122;50.236;11.734;2024-01-16T01:56:17;16.10;59.50
29031;DHT22;16122;50.236;11.734;2024-01-16T01:58:45;16.10;59.40
29031;DHT22;16122;50.236;11.734;2024-01-16T02:01:12;16.10;59.70
29031;DHT22;16122;50.236;11.734;2024-01-16T02:03:44;16.20;60.20
29031;DHT22;16122;50.236;11.734;2024-01-16T02:06:11;16.10;60.50
29031;DHT22;16122;50.236;11.734;2024-01-16T02:08:39;16.20;60.70
29031;DHT22;16122;50.236;11.734;2024-01-16T02:11:05;16.20;60.80
29031;DHT22;16122;50.236;11.734;2024-01-16T02:13:31;16.20;60.80
29031;DHT22;16122;50.236;11.734;2024-01-16T02:15:57;16.30;61.00
29031;DHT22;16122;50.236;11.734;2024-01-16T02:18:23;16.30;60.80
29031;DHT22;16122;50.236;11.734;2024-01-16T02:20:49;16.30;60.80
29031;DHT22;16122;50.236;11.734;2024-01-16T02:23:27;16.40;61.00
29031;DHT22;16122;50.236;11.734;2024-01-16T02:25:54;16.30;60.70
29031;DHT22;16122;50.236;11.734;2024-01-16T02:28:20;16.40;60.80
29031;DHT22;16122;50.236;11.734;2024-01-16T02:30:45;16.40;60.80
29031;DHT22;16122;50.236;11.734;2024-01-16T02:33:11;16.40;60.90
29031;DHT22;16122;50.236;11.734;2024-01-16T02:35:37;16.50;60.90
29031;DHT22;16122;50.236;11.734;2024-01-16T02:38:04;16.50;61.10
29031;DHT22;16122;50.236;11.734;2024-01-16T02:40:30;16.50;60.90
29031;DHT22;16122;50.236;11.734;2024-01-16T02:42:56;16.50;60.80
29031;DHT22;16122;50.236;11.734;2024-01-16T02:45:22;16.50;60.80
29031;DHT22;16122;50.236;11.734;2024-01-16T02:47:48;16.50;60.90
29031;DHT22;16122;50.236;11.734;2024-01-16T02:50:14;16.50;60.80
29031;DHT22;16122;50.236;11.734;2024-01-16T02:52:39;16.50;60.90
29031;DHT22;16122;50.236;11.734;2024-01-16T02:55:06;16.50;60.90
29031;DHT22;16122;50.236;11.734;2024-01-16T02:57:32;16.50;60.90
29031;DHT22;16122;50.236;11.734;2024-01-16T02:59:58;16.50;60.80
29031;DHT22;16122;50.236;11.734;2024-01-16T03:02:24;16.50;60.80
29031;DHT22;16122;50.236;11.734;2024-01-16T03:04:50;16.50;60.70
29031;DHT22;16122;50.236;11.734;2024-01-16T03:07:16;16.50;60.90
29031;DHT22;16122;50.236;11.734;2024-01-16T03:09:42;16.60;60.90
29031;DHT22;16122;50.236;11.734;2024-01-16T03:12:07;16.50;60.80
29031;DHT22;16122;50.236;11.734;2024-01-16T03:14:33;16.50;60.90
29031;DHT22;16122;50.236;11.734;2024-01-16T03:17:04;16.60;61.00
29031;DHT22;16122;50.236;11.734;2024-01-16T03:19:31;16.50;60.90
29031;DHT22;16122;50.236;11.734;2024-01-16T03:21:57;16.50;60.80
29031;DHT22;16122;50.236;11.734;2024-01-16T03:24:23;16.60;61.00
29031;DHT22;16122;50.236;11.734;2024-01-16T03:26:48;16.50;60.90
29031;DHT22;16122;50.236;11.734;2024-01-16T03:29:14;16.50;60.90
29031;DHT22;16122;50.236;11.734;2024-01-16T03:31:40;16.50;60.90
29031;DHT22;16122;50.236;11.734;2024-01-16T03:34:06;16.60;61.00
29031;DHT22;16122;50.236;11.734;2024-01-16T03:36:36;16.60;61.00
29031;DHT22;16122;50.236;11.734;2024-01-16T03:39:02;16.60;61.00
29031;DHT22;16122;50.236;11.734;2024-01-16T03:41:28;16.60;61.30
29031;DHT22;16122;50.236;11.734;2024-01-16T03:43:54;16.60;60.90
29031;DHT22;16122;50.236;11.734;2024-01-16T03:46:22;16.60;60.90
29031;DHT22;16122;50.236;11.734;2024-01-16T03:48:48;16.60;60.90
29031;DHT22;16122;50.236;11.734;2024-01-16T03:51:14;16.60;60.90
29031;DHT22;16122;50.236;11.734;2024-01-16T03:53:45;16.60;60.90
29031;DHT22;16122;50.236;11.734;2024-01-16T03:56:10;16.60;60.80
29031;DHT22;16122;50.236;11.734;2024-01-16T03:58:36;16.60;60.90
29031;DHT22;16122;50.236;11.734;2024-01-16T04:01:02;16.60;60.80
29031;DHT22;16122;50.236;11.734;2024-01-16T04:03:28;16.60;60.70
29031;DHT22;16122;50.236;11.734;2024-01-16T04:05:54;16.60;60.60
29031;DHT22;16122;50.236;11.734;2024-01-16T04:08:19;16.50;60.60
29031;DHT22;16122;50.236;11.734;2024-01-16T04:10:45;16.50;60.60
29031;DHT22;16122;50.236;11.734;2024-01-16T04:13:11;16.60;60.60
29031;DHT22;16122;50.236;11.734;2024-01-16T04:15:40;16.60;60.70
29031;DHT22;16122;50.236;11.734;2024-01-16T04:18:06;16.50;60.20
29031;DHT22;16122;50.236;11.734;2024-01-16T04:20:32;16.50;60.30
29031;DHT22;16122;50.236;11.734;2024-01-16T04:22:58;16.40;60.00
29031;DHT22;16122;50.236;11.734;2024-01-16T04:25:24;16.40;59.90
29031;DHT22;16122;50.236;11.734;2024-01-16T04:27:50;16.40;59.70
29031;DHT22;16122;50.236;11.734;2024-01-16T04:30:16;16.40;59.80
29031;DHT22;16122;50.236;11.734;2024-01-16T04:32:42;16.30;59.70
29031;DHT22;16122;50.236;11.734;2024-01-16T04:35:08;16.30;59.70
29031;DHT22;16122;50.236;11.734;2024-01-16T04:37:34;16.30;59.50
29031;DHT22;16122;50.236;11.734;2024-01-16T04:40:00;16.30;59.70
29031;DHT22;16122;50.236;11.734;2024-01-16T04:42:26;16.20;59.70
29031;DHT22;16122;50.236;11.734;2024-01-16T04:44:51;16.20;59.60
29031;DHT22;16122;50.236;11.734;2024-01-16T04:47:17;16.30;59.80
29031;DHT22;16122;50.236;11.734;2024-01-16T04:49:44;16.20;59.80
29031;DHT22;16122;50.236;11.734;2024-01-16T04:52:10;16.20;59.70
29031;DHT22;16122;50.236;11.734;2024-01-16T04:54:35;16.20;59.70
29031;DHT22;16122;50.236;11.734;2024-01-16T04:57:01;16.20;59.60
29031;DHT22;16122;50.236;11.734;2024-01-16T04:59:27;16.20;59.30
29031;DHT22;16122;50.236;11.734;2024-01-16T05:01:53;16.20;59.20
29031;DHT22;16122;50.236;11.734;2024-01-16T05:04:19;16.10;58.90
29031;DHT22;16122;50.236;11.734;2024-01-16T05:06:49;16.10;59.40
29031;DHT22;16122;50.236;11.734;2024-01-16T05:09:14;16.10;59.50
29031;DHT22;16122;50.236;11.734;2024-01-16T05:11:40;16.20;59.80
29031;DHT22;16122;50.236;11.734;2024-01-16T05:14:06;16.20;60.20
29031;DHT22;16122;50.236;11.734;2024-01-16T05:16:32;16.20;60.20
29031;DHT22;16122;50.236;11.734;2024-01-16T05:18:58;16.30;60.40
29031;DHT22;16122;50.236;11.734;2024-01-16T05:21:23;16.30;60.30
29031;DHT22;16122;50.236;11.734;2024-01-16T05:23:49;16.40;60.30
29031;DHT22;16122;50.236;11.734;2024-01-16T05:26:15;16.40;60.30
29031;DHT22;16122;50.236;11.734;2024-01-16T05:28:41;16.50;60.60
29031;DHT22;16122;50.236;11.734;2024-01-16T05:31:06;16.50;60.70
29031;DHT22;16122;50.236;11.734;2024-01-16T05:33:33;16.60;60.80
29031;DHT22;16122;50.236;11.734;2024-01-16T05:35:59;16.60;61.00
29031;DHT22;16122;50.236;11.734;2024-01-16T05:38:24;16.70;61.20
29031;DHT22;16122;50.236;11.734;2024-01-16T05:40:50;16.60;61.20
29031;DHT22;16122;50.236;11.734;2024-01-16T05:43:17;16.70;61.50
29031;DHT22;16122;50.236;11.734;2024-01-16T05:45:43;16.70;61.30
29031;DHT22;16122;50.236;11.734;2024-01-16T05:48:09;16.70;61.60
29031;DHT22;16122;50.236;11.734;2024-01-16T05:50:36;16.80;61.70
29031;DHT22;16122;50.236;11.734;2024-01-16T05:53:02;16.80;61.70
29031;DHT22;16122;50.236;11.734;2024-01-16T05:55:28;16.80;61.90
29031;DHT22;16122;50.236;11.734;2024-01-16T05:57:57;16.80;62.80
29031;DHT22;16122;50.236;11.734;2024-01-16T06:00:25;16.70;62.90
29031;DHT22;16122;50.236;11.734;2024-01-16T06:29:50;16.50;63.10
29031;DHT22;16122;50.236;11.734;2024-01-16T06:32:16;16.60;55.30
29031;DHT22;16122;50.236;11.734;2024-01-16T06:34:42;16.40;56.10
29031;DHT22;16122;50.236;11.734;2024-01-16T06:37:08;16.50;53.40
29031;DHT22;16122;50.236;11.734;2024-01-16T06:39:34;16.40;53.50
29031;DHT22;16122;50.236;11.734;2024-01-16T06:42:01;16.30;55.00
29031;DHT22;16122;50.236;11.734;2024-01-16T06:44:26;16.40;54.60
29031;DHT22;16122;50.236;11.734;2024-01-16T06:46:52;16.30;54.80
29031;DHT22;16122;50.236;11.734;2024-01-16T06:49:18;16.30;56.30
29031;DHT22;16122;50.236;11.734;2024-01-16T06:51:44;16.30;56.50
29031;DHT22;16122;50.236;11.734;2024-01-16T06:54:09;16.30;52.70
29031;DHT22;16122;50.236;11.734;2024-01-16T06:56:35;16.20;52.50
29031;DHT22;16122;50.236;11.734;2024-01-16T06:59:01;16.20;54.10
29031;DHT22;16122;50.236;11.734;2024-01-16T07:01:27;16.20;54.50
29031;DHT22;16122;50.236;11.734;2024-01-16T07:03:52;16.20;54.20
29031;DHT22;16122;50.236;11.734;2024-01-16T07:06:18;16.20;52.60
29031;DHT22;16122;50.236;11.734;2024-01-16T07:08:44;16.20;53.80
29031;DHT22;16122;50.236;11.734;2024-01-16T07:11:10;16.20;56.30
29031;DHT22;16122;50.236;11.734;2024-01-16T07:13:39;16.20;54.60
29031;DHT22;16122;50.236;11.734;2024-01-16T07:16:08;16.20;52.30
29031;DHT22;16122;50.236;11.734;2024-01-16T07:18:34;16.20;54.50
29031;DHT22;16122;50.236;11.734;2024-01-16T07:21:00;16.20;52.30
29031;DHT22;16122;50.236;11.734;2024-01-16T07:23:26;16.10;54.20
29031;DHT22;16122;50.236;11.734;2024-01-16T07:25:52;16.20;56.10
29031;DHT22;16122;50.236;11.734;2024-01-16T07:28:18;16.20;52.40
29031;DHT22;16122;50.236;11.734;2024-01-16T07:30:44;16.20;52.50
29031;DHT22;16122;50.236;11.734;2024-01-16T07:33:10;16.30;52.70
29031;DHT22;16122;50.236;11.734;2024-01-16T07:35:37;16.40;54.00
29031;DHT22;16122;50.236;11.734;2024-01-16T07:38:06;16.40;55.40
29031;DHT22;16122;50.236;11.734;2024-01-16T07:40:32;16.40;51.60
29031;DHT22;16122;50.236;11.734;2024-01-16T07:42:58;16.40;51.50
29031;DHT22;16122;50.236;11.734;2024-01-16T07:45:24;16.40;51.50
29031;DHT22;16122;50.236;11.734;2024-01-16T07:47:50;16.40;51.50
29031;DHT22;16122;50.236;11.734;2024-01-16T07:50:16;16.40;51.30
29031;DHT22;16122;50.236;11.734;2024-01-16T07:52:41;16.40;51.30
29031;DHT22;16122;50.236;11.734;2024-01-16T07:55:07;16.40;51.20
29031;DHT22;16122;50.236;11.734;2024-01-16T07:57:33;16.50;51.20
29031;DHT22;16122;50.236;11.734;2024-01-16T07:59:59;16.50;51.10
29031;DHT22;16122;50.236;11.734;2024-01-16T08:02:32;16.50;51.20
29031;DHT22;16122;50.236;11.734;2024-01-16T08:04:58;16.60;52.00
29031;DHT22;16122;50.236;11.734;2024-01-16T08:07:24;16.60;52.60
29031;DHT22;16122;50.236;11.734;2024-01-16T08:09:50;16.60;53.50
29031;DHT22;16122;50.236;11.734;2024-01-16T08:12:16;16.70;50.80
29031;DHT22;16122;50.236;11.734;2024-01-16T08:14:41;16.70;50.80
29031;DHT22;16122;50.236;11.734;2024-01-16T08:17:09;16.70;50.70
29031;DHT22;16122;50.236;11.734;2024-01-16T08:19:35;16.70;50.70
29031;DHT22;16122;50.236;11.734;2024-01-16T08:22:01;16.70;50.70
29031;DHT22;16122;50.236;11.734;2024-01-16T08:24:31;16.80;50.70
29031;DHT22;16122;50.236;11.734;2024-01-16T08:26:57;16.80;50.70
29031;DHT22;16122;50.236;11.734;2024-01-16T08:29:26;16.80;50.70
29031;DHT22;16122;50.236;11.734;2024-01-16T08:31:52;16.70;50.60
29031;DHT22;16122;50.236;11.734;2024-01-16T08:34:18;16.70;50.70
29031;DHT22;16122;50.236;11.734;2024-01-16T08:36:44;16.70;50.80
29031;DHT22;16122;50.236;11.734;2024-01-16T08:39:10;16.70;51.60
29031;DHT22;16122;50.236;11.734;2024-01-16T08:41:36;16.70;53.60
29031;DHT22;16122;50.236;11.734;2024-01-16T08:44:02;16.60;52.40
29031;DHT22;16122;50.236;11.734;2024-01-16T08:46:28;16.60;54.90
29031;DHT22;16122;50.236;11.734;2024-01-16T08:48:54;16.60;52.70
29031;DHT22;16122;50.236;11.734;2024-01-16T08:51:20;16.60;51.70
29031;DHT22;16122;50.236;11.734;2024-01-16T08:53:46;16.50;51.90
29031;DHT22;16122;50.236;11.734;2024-01-16T08:56:11;16.50;51.70
29031;DHT22;16122;50.236;11.734;2024-01-16T08:58:42;16.50;51.90
29031;DHT22;16122;50.236;11.734;2024-01-16T09:01:08;16.50;52.10
29031;DHT22;16122;50.236;11.734;2024-01-16T09:03:34;16.50;52.50
29031;DHT22;16122;50.236;11.734;2024-01-16T09:06:00;16.40;52.70
29031;DHT22;16122;50.236;11.734;2024-01-16T09:08:26;16.40;52.70
29031;DHT22;16122;50.236;11.734;2024-01-16T09:10:53;16.40;52.40
29031;DHT22;16122;50.236;11.734;2024-01-16T09:13:19;16.40;52.70
29031;DHT22;16122;50.236;11.734;2024-01-16T09:15:47;16.40;53.00
29031;DHT22;16122;50.236;11.734;2024-01-16T09:18:13;16.40;53.00
29031;DHT22;16122;50.236;11.734;2024-01-16T09:20:39;16.40;52.60
29031;DHT22;16122;50.236;11.734;2024-01-16T09:23:05;16.30;52.70
29031;DHT22;16122;50.236;11.734;2024-01-16T09:25:30;16.40;52.60
29031;DHT22;16122;50.236;11.734;2024-01-16T09:27:56;16.30;53.30
29031;DHT22;16122;50.236;11.734;2024-01-16T09:30:22;16.30;54.10
29031;DHT22;16122;50.236;11.734;2024-01-16T09:32:48;16.20;52.20
29031;DHT22;16122;50.236;11.734;2024-01-16T09:35:14;16.30;52.10
29031;DHT22;16122;50.236;11.734;2024-01-16T09:37:40;16.30;54.40
29031;DHT22;16122;50.236;11.734;2024-01-16T09:40:07;16.20;51.80
29031;DHT22;16122;50.236;11.734;2024-01-16T09:42:33;16.20;52.90
29031;DHT22;16122;50.236;11.734;2024-01-16T09:45:00;16.30;53.20
29031;DHT22;16122;50.236;11.734;2024-01-16T09:47:30;16.40;53.50
29031;DHT22;16122;50.236;11.734;2024-01-16T09:49:59;16.30;50.80
29031;DHT22;16122;50.236;11.734;2024-01-16T09:52:26;16.20;51.00
29031;DHT22;16122;50.236;11.734;2024-01-16T09:54:52;16.20;51.40
29031;DHT22;16122;50.236;11.734;2024-01-16T09:57:19;16.20;54.00
29031;DHT22;16122;50.236;11.734;2024-01-16T09:59:48;16.20;54.40
29031;DHT22;16122;50.236;11.734;2024-01-16T10:02:14;16.20;58.10
29031;DHT22;16122;50.236;11.734;2024-01-16T10:04:43;16.40;57.30
29031;DHT22;16122;50.236;11.734;2024-01-16T10:07:11;16.20;53.30
29031;DHT22;16122;50.236;11.734;2024-01-16T10:09:38;16.20;52.70
29031;DHT22;16122;50.236;11.734;2024-01-16T10:12:08;16.20;52.60
29031;DHT22;16122;50.236;11.734;2024-01-16T10:14:36;16.20;52.70
29031;DHT22;16122;50.236;11.734;2024-01-16T10:17:04;16.10;52.70
29031;DHT22;16122;50.236;11.734;2024-01-16T10:19:51;16.10;52.70
29031;DHT22;16122;50.236;11.734;2024-01-16T10:22:23;16.10;52.90
29031;DHT22;16122;50.236;11.734;2024-01-16T10:25:07;16.10;52.90
29031;DHT22;16122;50.236;11.734;2024-01-16T10:27:34;16.10;53.20
29031;DHT22;16122;50.236;11.734;2024-01-16T10:30:00;16.10;53.80
29031;DHT22;16122;50.236;11.734;2024-01-16T10:32:36;16.10;54.10
29031;DHT22;16122;50.236;11.734;2024-01-16T10:35:04;16.20;54.30
29031;DHT22;16122;50.236;11.734;2024-01-16T10:37:40;16.20;54.30
29031;DHT22;16122;50.236;11.734;2024-01-16T10:40:09;16.30;54.50
29031;DHT22;16122;50.236;11.734;2024-01-16T10:42:36;16.40;54.70
29031;DHT22;16122;50.236;11.734;2024-01-16T10:45:01;16.40;54.70
29031;DHT22;16122;50.236;11.734;2024-01-16T10:47:28;16.50;55.00
29031;DHT22;16122;50.236;11.734;2024-01-16T10:49:54;16.50;54.80
29031;DHT22;16122;50.236;11.734;2024-01-16T10:52:25;16.60;55.00
29031;DHT22;16122;50.236;11.734;2024-01-16T10:54:53;16.60;55.70
29031;DHT22;16122;50.236;11.734;2024-01-16T10:57:24;16.60;56.20
29031;DHT22;16122;50.236;11.734;2024-01-16T11:00:03;16.70;56.40
29031;DHT22;16122;50.236;11.734;2024-01-16T11:02:49;16.70;53.20
29031;DHT22;16122;50.236;11.734;2024-01-16T11:05:16;16.70;53.00
29031;DHT22;16122;50.236;11.734;2024-01-16T11:07:43;16.80;53.10
29031;DHT22;16122;50.236;11.734;2024-01-16T11:10:10;16.80;53.00
29031;DHT22;16122;50.236;11.734;2024-01-16T11:12:38;16.80;53.00
29031;DHT22;16122;50.236;11.734;2024-01-16T11:15:07;16.80;53.00
29031;DHT22;16122;50.236;11.734;2024-01-16T11:17:34;16.80;53.20
29031;DHT22;16122;50.236;11.734;2024-01-16T11:20:01;16.80;53.50
29031;DHT22;16122;50.236;11.734;2024-01-16T11:22:31;16.80;54.10
29031;DHT22;16122;50.236;11.734;2024-01-16T11:25:24;16.80;56.50
29031;DHT22;16122;50.236;11.734;2024-01-16T11:28:11;16.70;54.50
29031;DHT22;16122;50.236;11.734;2024-01-16T11:30:37;16.70;55.10
29031;DHT22;16122;50.236;11.734;2024-01-16T11:33:03;16.70;54.00
29031;DHT22;16122;50.236;11.734;2024-01-16T11:35:36;16.70;54.70
29031;DHT22;16122;50.236;11.734;2024-01-16T11:38:17;16.70;53.50
29031;DHT22;16122;50.236;11.734;2024-01-16T11:40:45;16.60;54.00
29031;DHT22;16122;50.236;11.734;2024-01-16T11:46:01;16.60;53.40
29031;DHT22;16122;50.236;11.734;2024-01-16T11:48:27;16.60;55.20
29031;DHT22;16122;50.236;11.734;2024-01-16T11:50:54;16.60;57.10
29031;DHT22;16122;50.236;11.734;2024-01-16T11:53:37;16.60;54.20
29031;DHT22;16122;50.236;11.734;2024-01-16T12:01:43;16.50;58.30
29031;DHT22;16122;50.236;11.734;2024-01-16T12:04:10;16.50;58.80
29031;DHT22;16122;50.236;11.734;2024-01-16T12:06:36;16.50;60.90
29031;DHT22;16122;50.236;11.734;2024-01-16T12:11:39;16.40;53.50
29031;DHT22;16122;50.236;11.734;2024-01-16T12:14:05;16.50;53.50
29031;DHT22;16122;50.236;11.734;2024-01-16T12:16:31;16.40;53.40
29031;DHT22;16122;50.236;11.734;2024-01-16T12:19:10;16.40;53.50
29031;DHT22;16122;50.236;11.734;2024-01-16T12:21:39;16.40;53.50
29031;DHT22;16122;50.236;11.734;2024-01-16T12:24:06;16.40;53.40
29031;DHT22;16122;50.236;11.734;2024-01-16T12:26:32;16.40;53.50
29031;DHT22;16122;50.236;11.734;2024-01-16T12:28:58;16.40;53.60
29031;DHT22;16122;50.236;11.734;2024-01-16T12:31:24;16.40;53.50
29031;DHT22;16122;50.236;11.734;2024-01-16T12:33:54;16.40;53.30
29031;DHT22;16122;50.236;11.734;2024-01-16T12:36:20;16.40;53.30
29031;DHT22;16122;50.236;11.734;2024-01-16T12:38:54;16.40;53.20
29031;DHT22;16122;50.236;11.734;2024-01-16T12:41:21;16.40;53.20
29031;DHT22;16122;50.236;11.734;2024-01-16T12:43:50;16.30;52.70
29031;DHT22;16122;50.236;11.734;2024-01-16T12:46:16;16.30;52.40
29031;DHT22;16122;50.236;11.734;2024-01-16T12:48:42;16.30;52.50
29031;DHT22;16122;50.236;11.734;2024-01-16T12:51:07;16.30;52.40
29031;DHT22;16122;50.236;11.734;2024-01-16T12:53:35;16.30;52.50
29031;DHT22;16122;50.236;11.734;2024-01-16T12:56:05;16.30;52.90
29031;DHT22;16122;50.236;11.734;2024-01-16T12:58:37;16.20;52.70
29031;DHT22;16122;50.236;11.734;2024-01-16T13:01:25;16.30;52.80
29031;DHT22;16122;50.236;11.734;2024-01-16T13:03:52;16.30;52.80
29031;DHT22;16122;50.236;11.734;2024-01-16T13:06:19;16.20;52.70
29031;DHT22;16122;50.236;11.734;2024-01-16T13:08:49;16.20;52.70
29031;DHT22;16122;50.236;11.734;2024-01-16T13:11:15;16.20;52.70
29031;DHT22;16122;50.236;11.734;2024-01-16T13:13:48;16.20;52.70
29031;DHT22;16122;50.236;11.734;2024-01-16T13:16:16;16.10;52.60
29031;DHT22;16122;50.236;11.734;2024-01-16T13:18:42;16.10;52.70
29031;DHT22;16122;50.236;11.734;2024-01-16T13:21:08;16.10;52.90
29031;DHT22;16122;50.236;11.734;2024-01-16T13:23:34;16.10;53.60
29031;DHT22;16122;50.236;11.734;2024-01-16T13:26:01;16.10;54.90
29031;DHT22;16122;50.236;11.734;2024-01-16T13:28:30;16.00;54.00
29031;DHT22;16122;50.236;11.734;2024-01-16T13:30:56;16.10;54.60
29031;DHT22;16122;50.236;11.734;2024-01-16T13:33:23;16.00;54.90
29031;DHT22;16122;50.236;11.734;2024-01-16T13:35:53;16.00;53.20
29031;DHT22;16122;50.236;11.734;2024-01-16T13:38:20;16.10;53.00
29031;DHT22;16122;50.236;11.734;2024-01-16T13:40:46;16.00;54.10
29031;DHT22;16122;50.236;11.734;2024-01-16T13:43:13;16.10;58.10
29031;DHT22;16122;50.236;11.734;2024-01-16T13:45:39;16.10;54.60
29031;DHT22;16122;50.236;11.734;2024-01-16T13:48:05;16.20;56.00
29031;DHT22;16122;50.236;11.734;2024-01-16T13:50:32;16.30;58.70
29031;DHT22;16122;50.236;11.734;2024-01-16T13:53:02;16.40;56.70
29031;DHT22;16122;50.236;11.734;2024-01-16T13:55:28;16.40;56.60
29031;DHT22;16122;50.236;11.734;2024-01-16T13:57:54;16.50;56.70
29031;DHT22;16122;50.236;11.734;2024-01-16T14:00:20;16.50;56.50
29031;DHT22;16122;50.236;11.734;2024-01-16T14:02:47;16.50;56.50
29031;DHT22;16122;50.236;11.734;2024-01-16T14:05:17;16.60;56.50
29031;DHT22;16122;50.236;11.734;2024-01-16T14:07:48;16.60;56.50
29031;DHT22;16122;50.236;11.734;2024-01-16T14:10:17;16.60;56.50
29031;DHT22;16122;50.236;11.734;2024-01-16T14:12:44;16.60;56.40
29031;DHT22;16122;50.236;11.734;2024-01-16T14:15:11;16.60;56.30
29031;DHT22;16122;50.236;11.734;2024-01-16T14:17:49;16.70;56.20
29031;DHT22;16122;50.236;11.734;2024-01-16T14:20:16;16.80;56.30
29031;DHT22;16122;50.236;11.734;2024-01-16T14:22:42;16.80;56.40
29031;DHT22;16122;50.236;11.734;2024-01-16T14:25:12;16.80;56.50
29031;DHT22;16122;50.236;11.734;2024-01-16T14:27:42;16.80;56.40
29031;DHT22;16122;50.236;11.734;2024-01-16T14:30:11;16.80;56.40
29031;DHT22;16122;50.236;11.734;2024-01-16T14:32:41;16.70;56.30
29031;DHT22;16122;50.236;11.734;2024-01-16T14:35:08;16.80;56.40
29031;DHT22;16122;50.236;11.734;2024-01-16T14:37:35;16.70;56.20
29031;DHT22;16122;50.236;11.734;2024-01-16T14:40:03;16.70;56.10
29031;DHT22;16122;50.236;11.734;2024-01-16T14:42:34;16.70;55.90
29031;DHT22;16122;50.236;11.734;2024-01-16T14:45:00;16.70;55.70
29031;DHT22;16122;50.236;11.734;2024-01-16T14:47:25;16.70;55.70
29031;DHT22;16122;50.236;11.734;2024-01-16T14:49:51;16.70;55.40
29031;DHT22;16122;50.236;11.734;2024-01-16T14:52:20;16.60;55.40
29031;DHT22;16122;50.236;11.734;2024-01-16T14:54:46;16.60;55.40
29031;DHT22;16122;50.236;11.734;2024-01-16T14:57:12;16.60;55.20
29031;DHT22;16122;50.236;11.734;2024-01-16T14:59:37;16.50;55.00
29031;DHT22;16122;50.236;11.734;2024-01-16T15:02:03;16.60;55.10
29031;DHT22;16122;50.236;11.734;2024-01-16T15:04:41;16.50;55.20
29031;DHT22;16122;50.236;11.734;2024-01-16T15:07:08;16.50;55.40
29031;DHT22;16122;50.236;11.734;2024-01-16T15:09:34;16.40;55.30
29031;DHT22;16122;50.236;11.734;2024-01-16T15:12:01;16.40;58.60
29031;DHT22;16122;50.236;11.734;2024-01-16T15:14:28;16.40;59.70
29031;DHT22;16122;50.236;11.734;2024-01-16T15:16:54;16.40;56.60
29031;DHT22;16122;50.236;11.734;2024-01-16T15:19:19;16.40;54.00
29031;DHT22;16122;50.236;11.734;2024-01-16T15:21:45;16.40;53.40
29031;DHT22;16122;50.236;11.734;2024-01-16T15:24:13;16.40;52.70
29031;DHT22;16122;50.236;11.734;2024-01-16T15:26:45;16.30;52.60
29031;DHT22;16122;50.236;11.734;2024-01-16T15:29:11;16.30;52.80
29031;DHT22;16122;50.236;11.734;2024-01-16T15:31:37;16.30;55.00
29031;DHT22;16122;50.236;11.734;2024-01-16T15:34:03;16.20;54.10
29031;DHT22;16122;50.236;11.734;2024-01-16T15:36:29;16.30;54.00
29031;DHT22;16122;50.236;11.734;2024-01-16T15:38:55;16.30;54.10
29031;DHT22;16122;50.236;11.734;2024-01-16T15:41:21;16.20;55.20
29031;DHT22;16122;50.236;11.734;2024-01-16T15:43:47;16.20;51.60
29031;DHT22;16122;50.236;11.734;2024-01-16T15:46:13;16.20;52.10
29031;DHT22;16122;50.236;11.734;2024-01-16T15:48:38;16.20;52.10
29031;DHT22;16122;50.236;11.734;2024-01-16T15:51:04;16.20;52.10
29031;DHT22;16122;50.236;11.734;2024-01-16T15:53:33;16.20;52.20